lblRaceName
Skip Navigation Links

HyperLink
Page 1 of 6 (256 items)
[1]23456
Pos
Race No
Fav
Share
Photo
Name
Time
Category
Cat Pos
Gender
Gen Pos
Club
Run1
T1
BL5
Cycle
T2
Run2
165Lewis Timmins01:01:43OVR1Male1Muckle Cc Tri Team00:13:2900:00:5500:32:2600:00:5500:13:56
2151Phil Wylie01:03:30OVR2Male2 00:13:2900:00:5500:33:5600:01:2400:13:44
339Luke Pollard01:04:29OVR3Male3Raf Tri Club00:12:2400:01:5000:32:5300:02:1700:15:04
432Jonathan Barnes01:04:3925-291Male4 00:14:1500:00:5100:33:4000:01:0400:14:47
554Matt Collison01:05:4725-292Male5Muckle Cc Tri Team00:14:3700:00:5100:33:1900:01:1100:15:46
656Jonathan Currie01:05:5325-293Male6 00:14:1400:01:0400:34:4600:01:1000:14:37
734Ben Cockburn01:06:1525-294Male7Orpington Ojays00:14:1700:00:5000:34:0900:01:1900:15:38
8123Brian Mclellan01:06:5735-391Male8 00:14:1600:01:0700:34:4100:01:0900:15:42
9126Ben Price01:07:1935-392Male9Kinetic One Cycling Dynamics00:13:3000:02:2400:34:0900:01:0900:16:06
1047Jamie Fradgley01:07:2625-295Male10Calderdale Tri Club00:15:2400:01:2000:34:1200:01:1100:15:17
1138Elliott Packham01:07:2725-296Male11Birmingham Running & Tri Club00:15:0100:00:4700:34:1600:00:5900:16:22
12124Daniel Thornton01:07:3735-393Male12Mersey Tri Club00:14:5500:01:2000:34:3800:01:2300:15:20
136Matthew Braybrooke01:07:4317-181Male13Knutsford Tri Club00:15:2400:00:5400:34:3400:00:5400:15:54
1436Eliot Taylor01:07:4425-297Male14Hereford Tri Club00:14:1500:01:1100:35:4200:01:4000:14:55
15145Steve Patterson01:08:1235-394Male15 00:15:3200:00:5600:34:3000:01:1300:16:00
1673Tom Howe01:08:2030-341Male16Tri-Lakeland00:14:4400:01:1900:34:4200:01:4900:15:44
17225Mark Shepherd01:08:2345-491Male17Banjo Cycles00:15:2600:01:2100:33:2100:01:0700:17:07
1890Paul Corney01:08:2630-342Male18Hillingdon Triathletes00:15:1000:00:5200:34:0400:01:0400:17:14
19143Andrew Boon01:08:3835-395Male19Rugby Tri Club00:15:1800:01:1300:34:1900:01:1900:16:26
2021Lloyd Bebbington01:08:5620-241Male20Newcastle (Staffs) Tri Club00:15:3300:00:5100:34:2800:01:3500:16:27
21170Mark Howard01:09:0440-441Male21Mersey Tri Club00:15:2200:01:4100:33:4800:01:4800:16:23
2233Paul Hewitt01:09:0725-298Male22 00:15:5200:00:5900:34:1100:01:2000:16:43
23182Mark Jarvis01:09:1340-442Male23Titans00:15:4900:01:0200:34:0300:01:2900:16:48
24122Craig Wood01:09:3835-396Male24 00:15:3100:00:5400:34:5500:01:1400:17:02
2522James Briscoe01:10:0320-242Male25 00:14:3700:00:5300:35:0900:01:1600:18:06
2670Timmy Humpton01:10:3130-343Male26 00:16:3000:01:4600:34:4600:01:2600:16:01
27114Simon Powner01:10:3635-397Male27Newcastle (Staffs) Tri Club00:15:3000:01:2000:35:4900:01:2500:16:30
2869Alan White01:10:4630-344Male28Tri Rivington00:15:3000:01:5900:35:1300:01:2000:16:42
2988Kris Whitelaw01:10:4830-345Male29Muckle Cc Tri Team00:17:3600:01:0000:32:2700:01:4600:17:58
30135Stephen Watkin01:10:5835-398Male30Penny Lane Striders00:14:5600:02:3700:37:1900:01:1600:14:49
3113Ellie Campbell01:11:10OVR1Female1Mersey Tri Club00:16:2400:01:2000:35:3500:01:2400:16:26
32165David Bratt01:11:1340-443Male31 00:15:4300:01:3700:35:2700:01:5100:16:33
33217Carl Shawcross01:11:1545-492Male32Medwaytri00:16:5300:00:5600:34:3800:01:0400:17:42
34192John Carr01:12:0140-444Male33 00:15:2300:00:5100:38:2000:01:1900:16:06
3510Callan Rowland01:12:0819-191Male34 00:15:2100:01:2000:38:1900:01:1800:15:49
36228Simon Clarke01:12:0945-493Male35Racing Tnt00:15:3800:01:0600:37:0300:01:4300:16:37
37130Wesley Barnett01:12:1235-399Male36Rochdale Tri club00:16:5400:01:1000:36:2400:01:1700:16:24
38133Jamie Taylor01:12:1935-3910Male37Racing Tnt00:15:4900:01:3100:37:2800:01:1700:16:12
398Niko Raine01:12:2617-182Male38Racing Tnt00:15:4300:01:1700:36:5800:01:1100:17:16
4072Jonathan Read01:12:3230-346Male39Velo Karbona00:15:2900:01:2400:37:2000:01:4000:16:38
41173Eddie Hirst01:12:3940-445Male40Ashurst Bike Club00:16:1300:00:5600:35:3100:01:2900:18:28
42244Dean Ramsden01:12:4345-494Male41Tri Rivington00:17:0600:01:0800:35:1200:01:0700:18:09
4343Mark Frost01:12:4725-299Male42Royal Navy Tri Club00:16:3700:00:5000:35:3500:01:0600:18:37
44348Andrew Stenson01:12:5930-347Male43Raf Tri Club00:15:4800:01:2600:36:3200:01:3000:17:40
45181Ian Hewitt01:13:0440-446Male44Derby Tri Club00:16:4100:01:1100:36:5300:01:1500:17:02
4619Scott Worthing01:13:3820-243Male45Yonda Racing00:16:3800:00:5900:34:5500:02:5900:18:05
47125Phil Darwen01:14:3735-3911Male46Red Rose Road Runners00:16:3600:01:5100:36:5400:02:3100:16:44
48222Ian Alcock01:14:4245-495Male47Worcester Tri Club00:17:1700:01:3400:36:5700:01:2700:17:24
49132Mark Clair01:14:4635-3912Male48Mersey Tri Club00:14:5500:01:0500:38:1500:02:5400:17:36
5014Laura Smith01:14:49OVR2Female2University Of Birmingham Tri Club00:16:2600:01:0300:37:3800:01:2200:18:18
Page 1 of 6 (256 items)
[1]23456
fb

HyperLink Copyright (c) G Vincent, 2016